Aviation Digital Data Service (ADDS)

Output produced by METARs form (0224 UTC 27 January 2022)
found at http://aviationweather.gov/metar/data/
 
METAR text: EGCC 270150Z AUTO 23009KT 9999 -RA OVC012/// //////TCU 09/07 Q1022 TEMPO RA
Conditions at: EGCC (MANCHESTER INTL , GB) observed 0150 UTC 27 January 2022
Temperature: 9.0°C (48°F)
Dewpoint: 7.0°C (45°F) [RH = 87%]
Pressure (altimeter): 30.18 inches Hg (1022.0 mb)
Winds: from the SW (230 degrees) at 10 MPH (9 knots; 4.6 m/s)
Visibility: 6 or more miles (10+ km)
Ceiling: 1200 feet AGL
Clouds: overcast cloud deck at 1200 feet AGL
Weather: -RA  (light rain)

METAR text: EGCC 270120Z AUTO 22010KT 9999 OVC014/// //////TCU 09/07 Q1023 TEMPO RA
Conditions at: EGCC (MANCHESTER INTL , GB) observed 0120 UTC 27 January 2022
Temperature: 9.0°C (48°F)
Dewpoint: 7.0°C (45°F) [RH = 87%]
Pressure (altimeter): 30.21 inches Hg (1023.0 mb)
Winds: from the SW (220 degrees) at 12 MPH (10 knots; 5.1 m/s)
Visibility: 6 or more miles (10+ km)
Ceiling: 1400 feet AGL
Clouds: overcast cloud deck at 1400 feet AGL
Weather: no significant weather observed at this time

METAR text: EGCC 270050Z AUTO 21010KT 9999 OVC014/// //////TCU 09/06 Q1023
Conditions at: EGCC (MANCHESTER INTL , GB) observed 0050 UTC 27 January 2022
Temperature: 9.0°C (48°F)
Dewpoint: 6.0°C (43°F) [RH = 81%]
Pressure (altimeter): 30.21 inches Hg (1023.0 mb)
Winds: from the SSW (210 degrees) at 12 MPH (10 knots; 5.1 m/s)
Visibility: 6 or more miles (10+ km)
Ceiling: 1400 feet AGL
Clouds: overcast cloud deck at 1400 feet AGL
Weather: no significant weather observed at this time

Forecast for: EGCC (MANCHESTER INTL , GB)
Text: TAF EGCC 262257Z 2700/2806 20009KT 9999 BKN020
Forecast period: 0000 UTC 27 January 2022 to 0600 UTC 28 January 2022
Forecast type: FROM: standard forecast or significant change
Winds: from the SSW (200 degrees) at 10 MPH (9 knots; 4.6 m/s)
Visibility: 6 or more miles (10+ km)
Ceiling: 2000 feet AGL
Clouds: broken clouds at 2000 feet AGL
Weather: no significant weather forecast for this period
Text: TEMPO 2700/2706 8000 -RA BKN012
Forecast period: 0000 to 0600 UTC 27 January 2022
Forecast type: TEMPORARY: The following changes expected for less than half the time period
Visibility: 5 miles (8 km)
Ceiling: 1200 feet AGL
Clouds: broken clouds at 1200 feet AGL
Weather: -RA  (light rain)
Text: PROB40
Forecast period: 0000 to 1000 UTC 27 January 2022
Forecast type: TEMPORARY: The following changes expected for less than half the time period
Winds: from the WSW (250 degrees) at 17 MPH (15 knots; 7.7 m/s)
gusting to 29 MPH (25 knots; 12.9 m/s)
Visibility: missing
Ceiling: unknown
Clouds: missing
Weather: no significant weather forecast for this period
Text: TEMPO 2700/2710 25015G25KT
Forecast period: 0100 to 0400 UTC 27 January 2022
Forecast type: TEMPORARY: The following changes expected for less than half the time period
Visibility: 2.49 miles (4.01 km)
Ceiling: 800 feet AGL
Clouds: broken clouds at 800 feet AGL
Weather: RA  (moderate rain)
Text: PROB40
Forecast period: 0400 to 0600 UTC 27 January 2022
Forecast type: TEMPORARY: The following changes expected for less than half the time period
Visibility: missing
Ceiling: 500 feet AGL
Clouds: broken clouds at 500 feet AGL
Weather: no significant weather forecast for this period